sensor_id;sensor_type;location;lat;lon;timestamp;P1;P2;P0
71858;PMS5003;59713;50.866;4.324;2023-06-22T00:00:27;8;8;
71858;PMS5003;59713;50.866;4.324;2023-06-22T00:01:27;8;8;
71858;PMS5003;59713;50.866;4.324;2023-06-22T00:02:27;8;8;
71858;PMS5003;59713;50.866;4.324;2023-06-22T00:02:27;8;8;
71858;PMS5003;59713;50.866;4.324;2023-06-22T00:03:27;8;8;
71858;PMS5003;59713;50.866;4.324;2023-06-22T00:04:27;4;4;
71858;PMS5003;59713;50.866;4.324;2023-06-22T00:05:27;4;4;
71858;PMS5003;59713;50.866;4.324;2023-06-22T00:06:27;4;4;
71858;PMS5003;59713;50.866;4.324;2023-06-22T00:07:27;6;6;
71858;PMS5003;59713;50.866;4.324;2023-06-22T00:08:27;6;6;
71858;PMS5003;59713;50.866;4.324;2023-06-22T00:09:27;6;6;
71858;PMS5003;59713;50.866;4.324;2023-06-22T00:10:27;9;8;
71858;PMS5003;59713;50.866;4.324;2023-06-22T00:11:27;9;8;
71858;PMS5003;59713;50.866;4.324;2023-06-22T00:11:27;9;8;
71858;PMS5003;59713;50.866;4.324;2023-06-22T00:12:27;9;8;
71858;PMS5003;59713;50.866;4.324;2023-06-22T00:13:27;8;7;
71858;PMS5003;59713;50.866;4.324;2023-06-22T00:14:27;8;7;
71858;PMS5003;59713;50.866;4.324;2023-06-22T00:15:27;8;7;
71858;PMS5003;59713;50.866;4.324;2023-06-22T00:16:27;6;6;
71858;PMS5003;59713;50.866;4.324;2023-06-22T00:17:27;6;6;
71858;PMS5003;59713;50.866;4.324;2023-06-22T00:18:27;6;6;
71858;PMS5003;59713;50.866;4.324;2023-06-22T00:19:27;5;5;
71858;PMS5003;59713;50.866;4.324;2023-06-22T00:20:28;5;5;
71858;PMS5003;59713;50.866;4.324;2023-06-22T00:21:27;5;5;
71858;PMS5003;59713;50.866;4.324;2023-06-22T00:21:27;5;5;
71858;PMS5003;59713;50.866;4.324;2023-06-22T00:22:27;9;8;
71858;PMS5003;59713;50.866;4.324;2023-06-22T00:23:27;9;8;
71858;PMS5003;59713;50.866;4.324;2023-06-22T00:24:27;9;8;
71858;PMS5003;59713;50.866;4.324;2023-06-22T00:25:27;7;7;
71858;PMS5003;59713;50.866;4.324;2023-06-22T00:26:27;7;7;
71858;PMS5003;59713;50.866;4.324;2023-06-22T00:27:27;7;7;
71858;PMS5003;59713;50.866;4.324;2023-06-22T00:28:27;8;6;
71858;PMS5003;59713;50.866;4.324;2023-06-22T00:29:27;8;6;
71858;PMS5003;59713;50.866;4.324;2023-06-22T00:30:27;8;6;
71858;PMS5003;59713;50.866;4.324;2023-06-22T00:30:27;8;6;
71858;PMS5003;59713;50.866;4.324;2023-06-22T00:31:27;5;5;
71858;PMS5003;59713;50.866;4.324;2023-06-22T00:32:27;5;5;
71858;PMS5003;59713;50.866;4.324;2023-06-22T00:33:27;5;5;
71858;PMS5003;59713;50.866;4.324;2023-06-22T00:34:27;5;5;
71858;PMS5003;59713;50.866;4.324;2023-06-22T00:35:27;5;5;
71858;PMS5003;59713;50.866;4.324;2023-06-22T00:36:27;5;5;
71858;PMS5003;59713;50.866;4.324;2023-06-22T00:37:27;6;6;
71858;PMS5003;59713;50.866;4.324;2023-06-22T00:38:27;6;6;
71858;PMS5003;59713;50.866;4.324;2023-06-22T00:39:27;6;6;
71858;PMS5003;59713;50.866;4.324;2023-06-22T00:39:27;6;6;
71858;PMS5003;59713;50.866;4.324;2023-06-22T00:40:27;4;4;
71858;PMS5003;59713;50.866;4.324;2023-06-22T00:41:27;4;4;
71858;PMS5003;59713;50.866;4.324;2023-06-22T00:42:27;4;4;
71858;PMS5003;59713;50.866;4.324;2023-06-22T00:43:27;9;5;
71858;PMS5003;59713;50.866;4.324;2023-06-22T00:44:27;9;5;
71858;PMS5003;59713;50.866;4.324;2023-06-22T00:45:27;9;5;
71858;PMS5003;59713;50.866;4.324;2023-06-22T00:46:27;6;5;
71858;PMS5003;59713;50.866;4.324;2023-06-22T00:47:27;6;5;
71858;PMS5003;59713;50.866;4.324;2023-06-22T00:48:27;6;5;
71858;PMS5003;59713;50.866;4.324;2023-06-22T00:48:27;6;5;
71858;PMS5003;59713;50.866;4.324;2023-06-22T00:49:27;6;6;
71858;PMS5003;59713;50.866;4.324;2023-06-22T00:50:28;6;6;
71858;PMS5003;59713;50.866;4.324;2023-06-22T00:51:27;6;6;
71858;PMS5003;59713;50.866;4.324;2023-06-22T00:52:27;4;4;
71858;PMS5003;59713;50.866;4.324;2023-06-22T00:53:27;4;4;
71858;PMS5003;59713;50.866;4.324;2023-06-22T00:54:27;4;4;
71858;PMS5003;59713;50.866;4.324;2023-06-22T00:55:27;6;6;
71858;PMS5003;59713;50.866;4.324;2023-06-22T00:56:27;6;6;
71858;PMS5003;59713;50.866;4.324;2023-06-22T00:57:27;6;6;
71858;PMS5003;59713;50.866;4.324;2023-06-22T00:58:27;4;4;
71858;PMS5003;59713;50.866;4.324;2023-06-22T00:58:27;4;4;
71858;PMS5003;59713;50.866;4.324;2023-06-22T00:59:27;4;4;
71858;PMS5003;59713;50.866;4.324;2023-06-22T01:00:27;4;4;
71858;PMS5003;59713;50.866;4.324;2023-06-22T01:01:27;5;5;
71858;PMS5003;59713;50.866;4.324;2023-06-22T01:02:27;5;5;
71858;PMS5003;59713;50.866;4.324;2023-06-22T01:03:27;5;5;
71858;PMS5003;59713;50.866;4.324;2023-06-22T01:04:34;8;6;
71858;PMS5003;59713;50.866;4.324;2023-06-22T01:05:27;8;6;
71858;PMS5003;59713;50.866;4.324;2023-06-22T01:06:29;8;6;
71858;PMS5003;59713;50.866;4.324;2023-06-22T01:07:29;4;4;
71858;PMS5003;59713;50.866;4.324;2023-06-22T01:07:30;4;4;
71858;PMS5003;59713;50.866;4.324;2023-06-22T01:08:29;4;4;
71858;PMS5003;59713;50.866;4.324;2023-06-22T01:09:28;4;4;
71858;PMS5003;59713;50.866;4.324;2023-06-22T01:10:29;3;3;
71858;PMS5003;59713;50.866;4.324;2023-06-22T01:11:28;3;3;
71858;PMS5003;59713;50.866;4.324;2023-06-22T01:12:28;3;3;
71858;PMS5003;59713;50.866;4.324;2023-06-22T01:13:28;5;5;
71858;PMS5003;59713;50.866;4.324;2023-06-22T01:14:28;5;5;
71858;PMS5003;59713;50.866;4.324;2023-06-22T01:15:28;5;5;
71858;PMS5003;59713;50.866;4.324;2023-06-22T01:16:29;7;5;
71858;PMS5003;59713;50.866;4.324;2023-06-22T01:17:27;7;5;
71858;PMS5003;59713;50.866;4.324;2023-06-22T01:17:27;7;5;
71858;PMS5003;59713;50.866;4.324;2023-06-22T01:18:28;7;5;
71858;PMS5003;59713;50.866;4.324;2023-06-22T01:19:31;5;5;
71858;PMS5003;59713;50.866;4.324;2023-06-22T01:20:27;5;5;
71858;PMS5003;59713;50.866;4.324;2023-06-22T01:21:28;5;5;
71858;PMS5003;59713;50.866;4.324;2023-06-22T01:22:28;8;6;
71858;PMS5003;59713;50.866;4.324;2023-06-22T01:23:29;8;6;
71858;PMS5003;59713;50.866;4.324;2023-06-22T01:24:30;8;6;
71858;PMS5003;59713;50.866;4.324;2023-06-22T01:25:28;4;4;
71858;PMS5003;59713;50.866;4.324;2023-06-22T01:26:28;4;4;
71858;PMS5003;59713;50.866;4.324;2023-06-22T01:26:28;4;4;
71858;PMS5003;59713;50.866;4.324;2023-06-22T01:27:31;4;4;
71858;PMS5003;59713;50.866;4.324;2023-06-22T01:28:36;7;5;
71858;PMS5003;59713;50.866;4.324;2023-06-22T01:29:27;7;5;
71858;PMS5003;59713;50.866;4.324;2023-06-22T01:30:27;7;5;
71858;PMS5003;59713;50.866;4.324;2023-06-22T01:31:27;6;4;
71858;PMS5003;59713;50.866;4.324;2023-06-22T01:32:28;6;4;
71858;PMS5003;59713;50.866;4.324;2023-06-22T01:33:27;6;4;
71858;PMS5003;59713;50.866;4.324;2023-06-22T01:34:27;5;5;
71858;PMS5003;59713;50.866;4.324;2023-06-22T01:35:27;5;5;
71858;PMS5003;59713;50.866;4.324;2023-06-22T01:35:27;5;5;
71858;PMS5003;59713;50.866;4.324;2023-06-22T01:36:27;5;5;
71858;PMS5003;59713;50.866;4.324;2023-06-22T01:37:27;4;4;
71858;PMS5003;59713;50.866;4.324;2023-06-22T01:38:28;4;4;
71858;PMS5003;59713;50.866;4.324;2023-06-22T01:39:27;4;4;
71858;PMS5003;59713;50.866;4.324;2023-06-22T01:40:27;4;4;
71858;PMS5003;59713;50.866;4.324;2023-06-22T01:41:28;4;4;
71858;PMS5003;59713;50.866;4.324;2023-06-22T01:42:27;4;4;
71858;PMS5003;59713;50.866;4.324;2023-06-22T01:43:27;5;5;
71858;PMS5003;59713;50.866;4.324;2023-06-22T01:44:27;5;5;
71858;PMS5003;59713;50.866;4.324;2023-06-22T01:44:27;5;5;
71858;PMS5003;59713;50.866;4.324;2023-06-22T01:45:27;5;5;
71858;PMS5003;59713;50.866;4.324;2023-06-22T01:46:27;7;5;
71858;PMS5003;59713;50.866;4.324;2023-06-22T01:47:27;7;5;
71858;PMS5003;59713;50.866;4.324;2023-06-22T01:48:27;7;5;
71858;PMS5003;59713;50.866;4.324;2023-06-22T01:49:27;5;4;
71858;PMS5003;59713;50.866;4.324;2023-06-22T01:50:27;5;4;
71858;PMS5003;59713;50.866;4.324;2023-06-22T01:51:27;5;4;
71858;PMS5003;59713;50.866;4.324;2023-06-22T01:52:27;5;4;
71858;PMS5003;59713;50.866;4.324;2023-06-22T01:53:27;5;4;
71858;PMS5003;59713;50.866;4.324;2023-06-22T01:53:27;5;4;
71858;PMS5003;59713;50.866;4.324;2023-06-22T01:54:27;5;4;
71858;PMS5003;59713;50.866;4.324;2023-06-22T01:55:27;4;4;
71858;PMS5003;59713;50.866;4.324;2023-06-22T01:56:27;4;4;
71858;PMS5003;59713;50.866;4.324;2023-06-22T01:57:27;4;4;
71858;PMS5003;59713;50.866;4.324;2023-06-22T01:58:28;6;6;
71858;PMS5003;59713;50.866;4.324;2023-06-22T01:59:28;6;6;
71858;PMS5003;59713;50.866;4.324;2023-06-22T02:00:28;6;6;
71858;PMS5003;59713;50.866;4.324;2023-06-22T02:01:29;7;5;
71858;PMS5003;59713;50.866;4.324;2023-06-22T02:02:28;7;5;
71858;PMS5003;59713;50.866;4.324;2023-06-22T02:03:29;7;5;
71858;PMS5003;59713;50.866;4.324;2023-06-22T02:03:29;7;5;
71858;PMS5003;59713;50.866;4.324;2023-06-22T02:04:28;8;6;
71858;PMS5003;59713;50.866;4.324;2023-06-22T02:05:28;8;6;
71858;PMS5003;59713;50.866;4.324;2023-06-22T02:06:29;8;6;
71858;PMS5003;59713;50.866;4.324;2023-06-22T02:07:28;5;5;
71858;PMS5003;59713;50.866;4.324;2023-06-22T02:08:28;5;5;
71858;PMS5003;59713;50.866;4.324;2023-06-22T02:09:29;5;5;
71858;PMS5003;59713;50.866;4.324;2023-06-22T02:10:27;7;6;
71858;PMS5003;59713;50.866;4.324;2023-06-22T02:11:28;7;6;
71858;PMS5003;59713;50.866;4.324;2023-06-22T02:12:27;7;6;
71858;PMS5003;59713;50.866;4.324;2023-06-22T02:13:27;5;4;
71858;PMS5003;59713;50.866;4.324;2023-06-22T02:13:27;5;4;
71858;PMS5003;59713;50.866;4.324;2023-06-22T02:14:27;5;4;
71858;PMS5003;59713;50.866;4.324;2023-06-22T02:15:27;5;4;
71858;PMS5003;59713;50.866;4.324;2023-06-22T02:16:27;5;4;
71858;PMS5003;59713;50.866;4.324;2023-06-22T02:17:27;5;4;
71858;PMS5003;59713;50.866;4.324;2023-06-22T02:18:27;5;4;
71858;PMS5003;59713;50.866;4.324;2023-06-22T02:19:27;7;7;
71858;PMS5003;59713;50.866;4.324;2023-06-22T02:20:27;7;7;
71858;PMS5003;59713;50.866;4.324;2023-06-22T02:21:27;7;7;
71858;PMS5003;59713;50.866;4.324;2023-06-22T02:22:27;5;5;
71858;PMS5003;59713;50.866;4.324;2023-06-22T02:22:27;5;5;
71858;PMS5003;59713;50.866;4.324;2023-06-22T02:23:27;5;5;
71858;PMS5003;59713;50.866;4.324;2023-06-22T02:24:27;5;5;
71858;PMS5003;59713;50.866;4.324;2023-06-22T02:25:27;3;3;
71858;PMS5003;59713;50.866;4.324;2023-06-22T02:26:29;3;3;
71858;PMS5003;59713;50.866;4.324;2023-06-22T02:27:27;3;3;
71858;PMS5003;59713;50.866;4.324;2023-06-22T02:28:27;8;7;
71858;PMS5003;59713;50.866;4.324;2023-06-22T02:29:28;8;7;
71858;PMS5003;59713;50.866;4.324;2023-06-22T02:30:27;8;7;
71858;PMS5003;59713;50.866;4.324;2023-06-22T02:31:27;4;4;
71858;PMS5003;59713;50.866;4.324;2023-06-22T02:31:27;4;4;
71858;PMS5003;59713;50.866;4.324;2023-06-22T02:32:27;4;4;
71858;PMS5003;59713;50.866;4.324;2023-06-22T02:33:27;4;4;
71858;PMS5003;59713;50.866;4.324;2023-06-22T02:34:27;5;5;
71858;PMS5003;59713;50.866;4.324;2023-06-22T02:35:28;5;5;
71858;PMS5003;59713;50.866;4.324;2023-06-22T02:36:27;5;5;
71858;PMS5003;59713;50.866;4.324;2023-06-22T02:37:27;6;6;
71858;PMS5003;59713;50.866;4.324;2023-06-22T02:38:27;6;6;
71858;PMS5003;59713;50.866;4.324;2023-06-22T02:39:28;6;6;
71858;PMS5003;59713;50.866;4.324;2023-06-22T02:40:28;7;6;
71858;PMS5003;59713;50.866;4.324;2023-06-22T02:40:28;7;6;
71858;PMS5003;59713;50.866;4.324;2023-06-22T02:41:28;7;6;
71858;PMS5003;59713;50.866;4.324;2023-06-22T02:42:27;7;6;
71858;PMS5003;59713;50.866;4.324;2023-06-22T02:43:27;6;6;
71858;PMS5003;59713;50.866;4.324;2023-06-22T02:44:27;6;6;
71858;PMS5003;59713;50.866;4.324;2023-06-22T02:45:27;6;6;
71858;PMS5003;59713;50.866;4.324;2023-06-22T02:46:27;12;8;
71858;PMS5003;59713;50.866;4.324;2023-06-22T02:47:27;12;8;
71858;PMS5003;59713;50.866;4.324;2023-06-22T02:48:27;12;8;
71858;PMS5003;59713;50.866;4.324;2023-06-22T02:49:27;5;5;
71858;PMS5003;59713;50.866;4.324;2023-06-22T02:50:27;5;5;
71858;PMS5003;59713;50.866;4.324;2023-06-22T02:50:28;5;5;
71858;PMS5003;59713;50.866;4.324;2023-06-22T02:51:28;5;5;
71858;PMS5003;59713;50.866;4.324;2023-06-22T02:52:27;5;5;
71858;PMS5003;59713;50.866;4.324;2023-06-22T02:53:27;5;5;
71858;PMS5003;59713;50.866;4.324;2023-06-22T02:54:27;5;5;
71858;PMS5003;59713;50.866;4.324;2023-06-22T02:55:28;5;5;
71858;PMS5003;59713;50.866;4.324;2023-06-22T02:56:28;5;5;
71858;PMS5003;59713;50.866;4.324;2023-06-22T02:57:28;5;5;
71858;PMS5003;59713;50.866;4.324;2023-06-22T02:58:27;6;5;
71858;PMS5003;59713;50.866;4.324;2023-06-22T02:59:28;6;5;
71858;PMS5003;59713;50.866;4.324;2023-06-22T02:59:28;6;5;
71858;PMS5003;59713;50.866;4.324;2023-06-22T03:00:28;6;5;
71858;PMS5003;59713;50.866;4.324;2023-06-22T03:01:28;5;5;
71858;PMS5003;59713;50.866;4.324;2023-06-22T03:02:28;5;5;
71858;PMS5003;59713;50.866;4.324;2023-06-22T03:03:28;5;5;
71858;PMS5003;59713;50.866;4.324;2023-06-22T03:04:27;4;4;
71858;PMS5003;59713;50.866;4.324;2023-06-22T03:05:28;4;4;
71858;PMS5003;59713;50.866;4.324;2023-06-22T03:06:28;4;4;
71858;PMS5003;59713;50.866;4.324;2023-06-22T03:07:27;8;4;
71858;PMS5003;59713;50.866;4.324;2023-06-22T03:08:28;8;4;
71858;PMS5003;59713;50.866;4.324;2023-06-22T03:09:28;8;4;
71858;PMS5003;59713;50.866;4.324;2023-06-22T03:09:28;8;4;
71858;PMS5003;59713;50.866;4.324;2023-06-22T03:10:28;6;5;
71858;PMS5003;59713;50.866;4.324;2023-06-22T03:11:28;6;5;
71858;PMS5003;59713;50.866;4.324;2023-06-22T03:12:28;6;5;
71858;PMS5003;59713;50.866;4.324;2023-06-22T03:13:28;7;7;
71858;PMS5003;59713;50.866;4.324;2023-06-22T03:14:28;7;7;
71858;PMS5003;59713;50.866;4.324;2023-06-22T03:15:28;7;7;
71858;PMS5003;59713;50.866;4.324;2023-06-22T03:16:28;6;6;
71858;PMS5003;59713;50.866;4.324;2023-06-22T03:17:28;6;6;
71858;PMS5003;59713;50.866;4.324;2023-06-22T03:18:28;6;6;
71858;PMS5003;59713;50.866;4.324;2023-06-22T03:18:28;6;6;
71858;PMS5003;59713;50.866;4.324;2023-06-22T03:19:28;6;6;
71858;PMS5003;59713;50.866;4.324;2023-06-22T03:20:28;6;6;
71858;PMS5003;59713;50.866;4.324;2023-06-22T03:21:28;6;6;
71858;PMS5003;59713;50.866;4.324;2023-06-22T03:22:28;6;6;
71858;PMS5003;59713;50.866;4.324;2023-06-22T03:23:28;6;6;
71858;PMS5003;59713;50.866;4.324;2023-06-22T03:24:28;6;6;
71858;PMS5003;59713;50.866;4.324;2023-06-22T03:25:28;6;4;
71858;PMS5003;59713;50.866;4.324;2023-06-22T03:26:28;6;4;
71858;PMS5003;59713;50.866;4.324;2023-06-22T03:27:28;6;4;
71858;PMS5003;59713;50.866;4.324;2023-06-22T03:27:28;6;4;
71858;PMS5003;59713;50.866;4.324;2023-06-22T03:28:28;8;6;
71858;PMS5003;59713;50.866;4.324;2023-06-22T03:29:28;8;6;
71858;PMS5003;59713;50.866;4.324;2023-06-22T03:30:28;8;6;
71858;PMS5003;59713;50.866;4.324;2023-06-22T03:31:28;6;5;
71858;PMS5003;59713;50.866;4.324;2023-06-22T03:32:28;6;5;
71858;PMS5003;59713;50.866;4.324;2023-06-22T03:33:28;6;5;
71858;PMS5003;59713;50.866;4.324;2023-06-22T03:34:28;8;8;
71858;PMS5003;59713;50.866;4.324;2023-06-22T03:35:28;8;8;
71858;PMS5003;59713;50.866;4.324;2023-06-22T03:36:28;8;8;
71858;PMS5003;59713;50.866;4.324;2023-06-22T03:36:28;8;8;
71858;PMS5003;59713;50.866;4.324;2023-06-22T03:37:28;8;7;
71858;PMS5003;59713;50.866;4.324;2023-06-22T03:38:28;8;7;
71858;PMS5003;59713;50.866;4.324;2023-06-22T03:39:28;8;7;
71858;PMS5003;59713;50.866;4.324;2023-06-22T03:40:28;8;8;
71858;PMS5003;59713;50.866;4.324;2023-06-22T03:41:28;8;8;
71858;PMS5003;59713;50.866;4.324;2023-06-22T03:42:28;8;8;
71858;PMS5003;59713;50.866;4.324;2023-06-22T03:43:28;11;10;
71858;PMS5003;59713;50.866;4.324;2023-06-22T03:44:28;11;10;
71858;PMS5003;59713;50.866;4.324;2023-06-22T03:45:28;11;10;
71858;PMS5003;59713;50.866;4.324;2023-06-22T03:46:28;7;7;
71858;PMS5003;59713;50.866;4.324;2023-06-22T03:46:28;7;7;
71858;PMS5003;59713;50.866;4.324;2023-06-22T03:47:28;7;7;
71858;PMS5003;59713;50.866;4.324;2023-06-22T03:48:28;7;7;
71858;PMS5003;59713;50.866;4.324;2023-06-22T03:49:28;10;7;
71858;PMS5003;59713;50.866;4.324;2023-06-22T03:50:28;10;7;
71858;PMS5003;59713;50.866;4.324;2023-06-22T03:51:28;10;7;
71858;PMS5003;59713;50.866;4.324;2023-06-22T03:52:28;10;10;
71858;PMS5003;59713;50.866;4.324;2023-06-22T03:53:28;10;10;
71858;PMS5003;59713;50.866;4.324;2023-06-22T03:54:28;10;10;
71858;PMS5003;59713;50.866;4.324;2023-06-22T03:55:28;9;7;
71858;PMS5003;59713;50.866;4.324;2023-06-22T03:55:28;9;7;
71858;PMS5003;59713;50.866;4.324;2023-06-22T03:56:28;9;7;
71858;PMS5003;59713;50.866;4.324;2023-06-22T03:57:28;9;7;
71858;PMS5003;59713;50.866;4.324;2023-06-22T03:58:28;13;10;
71858;PMS5003;59713;50.866;4.324;2023-06-22T03:59:28;13;10;
71858;PMS5003;59713;50.866;4.324;2023-06-22T04:00:28;13;10;
71858;PMS5003;59713;50.866;4.324;2023-06-22T04:01:28;9;8;
71858;PMS5003;59713;50.866;4.324;2023-06-22T04:02:28;9;8;
71858;PMS5003;59713;50.866;4.324;2023-06-22T04:03:28;9;8;
71858;PMS5003;59713;50.866;4.324;2023-06-22T04:04:28;10;8;
71858;PMS5003;59713;50.866;4.324;2023-06-22T04:04:28;10;8;
71858;PMS5003;59713;50.866;4.324;2023-06-22T04:05:28;10;8;
71858;PMS5003;59713;50.866;4.324;2023-06-22T04:06:28;10;8;
71858;PMS5003;59713;50.866;4.324;2023-06-22T04:07:28;9;9;
71858;PMS5003;59713;50.866;4.324;2023-06-22T04:08:28;9;9;
71858;PMS5003;59713;50.866;4.324;2023-06-22T04:09:28;9;9;
71858;PMS5003;59713;50.866;4.324;2023-06-22T04:10:28;12;10;
71858;PMS5003;59713;50.866;4.324;2023-06-22T04:11:28;12;10;
71858;PMS5003;59713;50.866;4.324;2023-06-22T04:12:28;12;10;
71858;PMS5003;59713;50.866;4.324;2023-06-22T04:13:28;8;7;
71858;PMS5003;59713;50.866;4.324;2023-06-22T04:13:28;8;7;
71858;PMS5003;59713;50.866;4.324;2023-06-22T04:14:28;8;7;
71858;PMS5003;59713;50.866;4.324;2023-06-22T04:15:28;8;7;
71858;PMS5003;59713;50.866;4.324;2023-06-22T04:16:28;13;11;
71858;PMS5003;59713;50.866;4.324;2023-06-22T04:17:28;13;11;
71858;PMS5003;59713;50.866;4.324;2023-06-22T04:18:28;13;11;
71858;PMS5003;59713;50.866;4.324;2023-06-22T04:19:28;10;10;
71858;PMS5003;59713;50.866;4.324;2023-06-22T04:20:28;10;10;
71858;PMS5003;59713;50.866;4.324;2023-06-22T04:21:28;10;10;
71858;PMS5003;59713;50.866;4.324;2023-06-22T04:22:28;13;11;
71858;PMS5003;59713;50.866;4.324;2023-06-22T04:22:28;13;11;
71858;PMS5003;59713;50.866;4.324;2023-06-22T04:23:28;13;11;
71858;PMS5003;59713;50.866;4.324;2023-06-22T04:24:28;13;11;
71858;PMS5003;59713;50.866;4.324;2023-06-22T04:25:28;16;9;
71858;PMS5003;59713;50.866;4.324;2023-06-22T04:26:28;16;9;
71858;PMS5003;59713;50.866;4.324;2023-06-22T04:27:28;16;9;
71858;PMS5003;59713;50.866;4.324;2023-06-22T04:28:28;11;11;
71858;PMS5003;59713;50.866;4.324;2023-06-22T04:29:28;11;11;
71858;PMS5003;59713;50.866;4.324;2023-06-22T04:30:28;11;11;
71858;PMS5003;59713;50.866;4.324;2023-06-22T04:31:28;11;11;
71858;PMS5003;59713;50.866;4.324;2023-06-22T04:31:28;11;11;
71858;PMS5003;59713;50.866;4.324;2023-06-22T04:32:28;11;11;
71858;PMS5003;59713;50.866;4.324;2023-06-22T04:33:28;11;11;
71858;PMS5003;59713;50.866;4.324;2023-06-22T04:34:28;10;10;
71858;PMS5003;59713;50.866;4.324;2023-06-22T04:35:28;10;10;
71858;PMS5003;59713;50.866;4.324;2023-06-22T04:36:28;10;10;
71858;PMS5003;59713;50.866;4.324;2023-06-22T04:37:28;19;13;
71858;PMS5003;59713;50.866;4.324;2023-06-22T04:38:28;19;13;
71858;PMS5003;59713;50.866;4.324;2023-06-22T04:39:28;19;13;
71858;PMS5003;59713;50.866;4.324;2023-06-22T04:40:28;13;11;
71858;PMS5003;59713;50.866;4.324;2023-06-22T04:40:28;13;11;
71858;PMS5003;59713;50.866;4.324;2023-06-22T04:41:28;13;11;
71858;PMS5003;59713;50.866;4.324;2023-06-22T04:42:28;13;11;
71858;PMS5003;59713;50.866;4.324;2023-06-22T04:43:28;11;11;
71858;PMS5003;59713;50.866;4.324;2023-06-22T04:44:28;11;11;
71858;PMS5003;59713;50.866;4.324;2023-06-22T04:45:28;11;11;
71858;PMS5003;59713;50.866;4.324;2023-06-22T04:46:28;10;10;
71858;PMS5003;59713;50.866;4.324;2023-06-22T04:47:28;10;10;
71858;PMS5003;59713;50.866;4.324;2023-06-22T04:48:28;10;10;
71858;PMS5003;59713;50.866;4.324;2023-06-22T04:49:28;10;10;
71858;PMS5003;59713;50.866;4.324;2023-06-22T04:49:28;10;10;
71858;PMS5003;59713;50.866;4.324;2023-06-22T04:50:28;10;10;
71858;PMS5003;59713;50.866;4.324;2023-06-22T04:51:28;10;10;
71858;PMS5003;59713;50.866;4.324;2023-06-22T04:52:28;12;11;
71858;PMS5003;59713;50.866;4.324;2023-06-22T04:53:28;12;11;
71858;PMS5003;59713;50.866;4.324;2023-06-22T04:54:28;12;11;
71858;PMS5003;59713;50.866;4.324;2023-06-22T04:55:28;19;13;
71858;PMS5003;59713;50.866;4.324;2023-06-22T04:56:28;19;13;
71858;PMS5003;59713;50.866;4.324;2023-06-22T04:57:28;19;13;
71858;PMS5003;59713;50.866;4.324;2023-06-22T04:58:28;17;14;
71858;PMS5003;59713;50.866;4.324;2023-06-22T04:58:28;17;14;
71858;PMS5003;59713;50.866;4.324;2023-06-22T04:59:28;17;14;
71858;PMS5003;59713;50.866;4.324;2023-06-22T05:00:28;17;14;
71858;PMS5003;59713;50.866;4.324;2023-06-22T05:01:28;17;14;
71858;PMS5003;59713;50.866;4.324;2023-06-22T05:02:28;17;14;
71858;PMS5003;59713;50.866;4.324;2023-06-22T05:03:28;17;14;
71858;PMS5003;59713;50.866;4.324;2023-06-22T05:04:28;17;15;
71858;PMS5003;59713;50.866;4.324;2023-06-22T05:05:28;17;15;
71858;PMS5003;59713;50.866;4.324;2023-06-22T05:06:28;17;15;
71858;PMS5003;59713;50.866;4.324;2023-06-22T05:07:28;14;14;
71858;PMS5003;59713;50.866;4.324;2023-06-22T05:07:28;14;14;
71858;PMS5003;59713;50.866;4.324;2023-06-22T05:08:28;14;14;
71858;PMS5003;59713;50.866;4.324;2023-06-22T05:09:28;14;14;
71858;PMS5003;59713;50.866;4.324;2023-06-22T05:10:28;12;11;
71858;PMS5003;59713;50.866;4.324;2023-06-22T05:11:28;12;11;
71858;PMS5003;59713;50.866;4.324;2023-06-22T05:12:28;12;11;
71858;PMS5003;59713;50.866;4.324;2023-06-22T05:13:28;15;14;
71858;PMS5003;59713;50.866;4.324;2023-06-22T05:14:28;15;14;
71858;PMS5003;59713;50.866;4.324;2023-06-22T05:15:28;15;14;
71858;PMS5003;59713;50.866;4.324;2023-06-22T05:16:28;16;11;
71858;PMS5003;59713;50.866;4.324;2023-06-22T05:16:28;16;11;
71858;PMS5003;59713;50.866;4.324;2023-06-22T05:17:28;16;11;
71858;PMS5003;59713;50.866;4.324;2023-06-22T05:18:28;16;11;
71858;PMS5003;59713;50.866;4.324;2023-06-22T05:19:28;15;13;
71858;PMS5003;59713;50.866;4.324;2023-06-22T05:20:28;15;13;
71858;PMS5003;59713;50.866;4.324;2023-06-22T05:21:28;15;13;
71858;PMS5003;59713;50.866;4.324;2023-06-22T05:22:28;14;14;
71858;PMS5003;59713;50.866;4.324;2023-06-22T05:23:28;14;14;
71858;PMS5003;59713;50.866;4.324;2023-06-22T05:24:28;14;14;
71858;PMS5003;59713;50.866;4.324;2023-06-22T05:25:28;17;12;
71858;PMS5003;59713;50.866;4.324;2023-06-22T05:25:28;17;12;
71858;PMS5003;59713;50.866;4.324;2023-06-22T05:26:28;17;12;
71858;PMS5003;59713;50.866;4.324;2023-06-22T05:27:28;17;12;
71858;PMS5003;59713;50.866;4.324;2023-06-22T05:28:28;13;11;
71858;PMS5003;59713;50.866;4.324;2023-06-22T05:29:28;13;11;
71858;PMS5003;59713;50.866;4.324;2023-06-22T05:30:28;13;11;
71858;PMS5003;59713;50.866;4.324;2023-06-22T05:31:28;15;15;
71858;PMS5003;59713;50.866;4.324;2023-06-22T05:32:28;15;15;
71858;PMS5003;59713;50.866;4.324;2023-06-22T05:33:28;15;15;
71858;PMS5003;59713;50.866;4.324;2023-06-22T05:34:28;15;14;
71858;PMS5003;59713;50.866;4.324;2023-06-22T05:34:28;15;14;
71858;PMS5003;59713;50.866;4.324;2023-06-22T05:35:28;15;14;
71858;PMS5003;59713;50.866;4.324;2023-06-22T05:36:28;15;14;
71858;PMS5003;59713;50.866;4.324;2023-06-22T05:37:28;11;11;
71858;PMS5003;59713;50.866;4.324;2023-06-22T05:38:28;11;11;
71858;PMS5003;59713;50.866;4.324;2023-06-22T05:39:28;11;11;
71858;PMS5003;59713;50.866;4.324;2023-06-22T05:40:28;13;12;
71858;PMS5003;59713;50.866;4.324;2023-06-22T05:41:28;13;12;
71858;PMS5003;59713;50.866;4.324;2023-06-22T05:42:28;13;12;
71858;PMS5003;59713;50.866;4.324;2023-06-22T05:43:28;13;12;
71858;PMS5003;59713;50.866;4.324;2023-06-22T05:43:28;13;12;
71858;PMS5003;59713;50.866;4.324;2023-06-22T05:44:28;13;12;
71858;PMS5003;59713;50.866;4.324;2023-06-22T05:45:28;13;12;
71858;PMS5003;59713;50.866;4.324;2023-06-22T05:46:28;14;14;
71858;PMS5003;59713;50.866;4.324;2023-06-22T05:47:28;14;14;
71858;PMS5003;59713;50.866;4.324;2023-06-22T05:48:28;14;14;
71858;PMS5003;59713;50.866;4.324;2023-06-22T05:49:28;14;14;
71858;PMS5003;59713;50.866;4.324;2023-06-22T05:50:28;14;14;
71858;PMS5003;59713;50.866;4.324;2023-06-22T05:51:28;14;14;
71858;PMS5003;59713;50.866;4.324;2023-06-22T05:52:28;18;15;
71858;PMS5003;59713;50.866;4.324;2023-06-22T05:52:28;18;15;
71858;PMS5003;59713;50.866;4.324;2023-06-22T05:53:28;18;15;
71858;PMS5003;59713;50.866;4.324;2023-06-22T05:54:28;18;15;
71858;PMS5003;59713;50.866;4.324;2023-06-22T05:55:28;13;11;
71858;PMS5003;59713;50.866;4.324;2023-06-22T05:56:28;13;11;
71858;PMS5003;59713;50.866;4.324;2023-06-22T05:57:28;13;11;
71858;PMS5003;59713;50.866;4.324;2023-06-22T05:58:28;15;14;
71858;PMS5003;59713;50.866;4.324;2023-06-22T05:59:28;15;14;
71858;PMS5003;59713;50.866;4.324;2023-06-22T06:00:28;15;14;
71858;PMS5003;59713;50.866;4.324;2023-06-22T06:01:28;18;17;
71858;PMS5003;59713;50.866;4.324;2023-06-22T06:01:28;18;17;
71858;PMS5003;59713;50.866;4.324;2023-06-22T06:02:28;18;17;
71858;PMS5003;59713;50.866;4.324;2023-06-22T06:03:28;18;17;
71858;PMS5003;59713;50.866;4.324;2023-06-22T06:04:28;17;16;
71858;PMS5003;59713;50.866;4.324;2023-06-22T06:05:28;17;16;
71858;PMS5003;59713;50.866;4.324;2023-06-22T06:06:28;17;16;